Time;durP1;ratioP1;P1;durP2;ratioP2;P2;SDS_P1;SDS_P2;PMS_P1;PMS_P2;Temp;Humidity;BMP_temperature;BMP_pressure;BME280_temperature;BME280_humidity;BME280_pressure;Samples;Min_cycle;Max_cycle;Signal;HPM_P1;HPM_P2
2021/06/15 00:00:25;;;;;;;1.83;1.40;;;;;;;;;;5086091;28;20028;-77
2021/06/15 00:02:51;;;;;;;1.85;1.40;;;;;;;;;;5093576;28;20012;-77
2021/06/15 00:05:17;;;;;;;2.10;1.45;;;;;;;;;;5093912;28;20038;-78
2021/06/15 00:07:44;;;;;;;2.38;1.30;;;;;;;;;;5093467;28;20464;-78
2021/06/15 00:10:12;;;;;;;1.25;1.08;;;;;;;;;;5075917;28;20361;-78
2021/06/15 00:12:39;;;;;;;1.70;1.30;;;;;;;;;;5077367;28;20092;-77
2021/06/15 00:15:06;;;;;;;1.92;1.35;;;;;;;;;;5056290;28;20107;-78
2021/06/15 00:17:32;;;;;;;1.73;1.45;;;;;;;;;;5075045;28;20111;-78
2021/06/15 00:19:58;;;;;;;2.90;1.02;;;;;;;;;;5078269;28;20060;-78
2021/06/15 00:22:24;;;;;;;1.63;1.20;;;;;;;;;;5081716;28;20021;-78
2021/06/15 00:24:50;;;;;;;1.63;1.02;;;;;;;;;;5077068;28;20028;-77
2021/06/15 00:27:16;;;;;;;1.17;1.00;;;;;;;;;;5076793;28;20033;-79
2021/06/15 00:29:43;;;;;;;1.45;1.33;;;;;;;;;;5076060;28;20514;-78
2021/06/15 00:32:09;;;;;;;1.13;1.05;;;;;;;;;;5100748;28;20302;-78
2021/06/15 00:34:35;;;;;;;2.13;1.60;;;;;;;;;;5095832;28;20034;-78
2021/06/15 00:37:01;;;;;;;1.88;1.23;;;;;;;;;;5095942;28;20191;-78
2021/06/15 00:39:27;;;;;;;1.23;1.13;;;;;;;;;;5071721;28;20043;-79
2021/06/15 00:41:53;;;;;;;1.05;0.93;;;;;;;;;;5081804;28;20020;-78
2021/06/15 00:44:19;;;;;;;1.30;1.20;;;;;;;;;;5083937;28;20020;-77
2021/06/15 00:46:45;;;;;;;1.98;1.23;;;;;;;;;;5079423;28;20059;-79
2021/06/15 00:49:14;;;;;;;1.58;1.38;;;;;;;;;;5082942;28;20028;-78
2021/06/15 00:51:40;;;;;;;1.70;1.15;;;;;;;;;;5098344;28;20032;-78
2021/06/15 00:54:06;;;;;;;2.03;1.27;;;;;;;;;;5098557;28;20427;-78
2021/06/15 00:56:32;;;;;;;1.30;1.20;;;;;;;;;;5098109;28;20028;-78
2021/06/15 00:58:58;;;;;;;1.38;1.27;;;;;;;;;;5098669;28;20020;-79
2021/06/15 01:01:24;;;;;;;2.13;1.45;;;;;;;;;;5098135;28;20024;-78
2021/06/15 01:03:51;;;;;;;2.42;1.80;;;;;;;;;;5098796;28;20028;-79
2021/06/15 01:06:22;;;;;;;3.10;2.35;;;;;;;;;;5098282;28;20051;-78
2021/06/15 01:08:51;;;;;;;2.17;1.80;;;;;;;;;;5079767;28;20024;-78
2021/06/15 01:11:23;;;;;;;2.60;1.77;;;;;;;;;;5082760;28;20029;-78
2021/06/15 01:13:56;;;;;;;2.08;1.65;;;;;;;;;;5077778;28;20477;-78
2021/06/15 01:16:36;;;;;;;2.13;1.60;;;;;;;;;;5077737;28;20501;-79
2021/06/15 01:19:08;;;;;;;2.00;1.50;;;;;;;;;;5092111;28;20050;-78
2021/06/15 01:21:38;;;;;;;2.53;1.67;;;;;;;;;;5097996;28;20487;-78
2021/06/15 01:24:09;;;;;;;1.77;1.38;;;;;;;;;;5098249;28;20239;-78
2021/06/15 01:26:54;;;;;;;2.35;1.65;;;;;;;;;;5080426;28;20027;-78
2021/06/15 01:29:40;;;;;;;3.05;1.98;;;;;;;;;;5082695;28;20103;-78
2021/06/15 01:32:32;;;;;;;1.85;1.75;;;;;;;;;;5091238;28;20043;-79
2021/06/15 01:35:00;;;;;;;1.50;1.40;;;;;;;;;;5092183;28;20040;-76
2021/06/15 01:37:44;;;;;;;2.70;1.67;;;;;;;;;;5078592;28;20397;-78
2021/06/15 01:40:15;;;;;;;2.05;1.85;;;;;;;;;;5077452;28;20029;-76
2021/06/15 01:42:43;;;;;;;3.50;2.05;;;;;;;;;;5072611;28;20024;-77
2021/06/15 01:45:16;;;;;;;3.22;1.88;;;;;;;;;;5054941;28;20025;-77
2021/06/15 01:47:42;;;;;;;;;;;;;;;;;;5075359;28;20389;-77
2021/06/15 01:50:09;;;;;;;2.70;1.80;;;;;;;;;;5091054;28;19908;-78
2021/06/15 01:52:37;;;;;;;1.98;1.58;;;;;;;;;;5095486;28;20023;-78
2021/06/15 01:55:04;;;;;;;1.70;1.60;;;;;;;;;;5095745;28;20386;-77
2021/06/15 01:57:31;;;;;;;3.25;1.65;;;;;;;;;;5096386;28;20031;-77
2021/06/15 01:59:58;;;;;;;2.70;1.90;;;;;;;;;;5088530;28;20189;-77
2021/06/15 02:02:25;;;;;;;2.88;1.73;;;;;;;;;;5078963;28;20021;-77
2021/06/15 02:04:52;;;;;;;2.05;1.67;;;;;;;;;;5074999;28;20025;-77
2021/06/15 02:07:21;;;;;;;4.63;2.20;;;;;;;;;;5075334;28;20035;-78
2021/06/15 02:09:49;;;;;;;3.75;2.47;;;;;;;;;;5075036;28;20084;-78
2021/06/15 02:12:19;;;;;;;2.45;2.17;;;;;;;;;;5057067;28;20369;-79
2021/06/15 02:14:45;;;;;;;2.35;1.95;;;;;;;;;;5054741;28;20135;-77
2021/06/15 02:17:13;;;;;;;1.60;1.50;;;;;;;;;;5071980;28;20063;-77
2021/06/15 02:19:40;;;;;;;2.88;1.80;;;;;;;;;;5078992;28;20090;-76
2021/06/15 02:22:11;;;;;;;2.05;1.73;;;;;;;;;;5075921;28;20055;-78
2021/06/15 02:24:47;;;;;;;1.67;1.47;;;;;;;;;;5077817;28;20036;-78
2021/06/15 02:27:15;;;;;;;2.47;1.85;;;;;;;;;;5093546;28;20031;-77
2021/06/15 02:29:41;;;;;;;2.78;1.63;;;;;;;;;;5103309;28;20035;-77
2021/06/15 02:32:09;;;;;;;1.70;1.55;;;;;;;;;;5101042;28;20099;-77
2021/06/15 02:34:37;;;;;;;2.25;1.70;;;;;;;;;;5100093;28;20028;-77
2021/06/15 02:37:04;;;;;;;2.65;1.70;;;;;;;;;;5089943;28;20028;-77
2021/06/15 02:39:33;;;;;;;1.92;1.80;;;;;;;;;;5068906;28;20025;-77
2021/06/15 02:42:01;;;;;;;5.55;1.80;;;;;;;;;;5075791;28;20115;-77
2021/06/15 02:44:30;;;;;;;2.60;1.80;;;;;;;;;;5075311;28;20461;-77
2021/06/15 02:46:57;;;;;;;4.10;1.85;;;;;;;;;;5075101;28;20035;-78
2021/06/15 02:49:27;;;;;;;3.85;2.35;;;;;;;;;;5075505;28;20076;-78
2021/06/15 02:52:14;;;;;;;2.47;2.28;;;;;;;;;;5074862;28;20043;-78
2021/06/15 02:54:48;;;;;;;3.03;2.00;;;;;;;;;;5056425;28;20358;-78
2021/06/15 02:57:15;;;;;;;3.42;2.25;;;;;;;;;;5077907;28;20074;-78
2021/06/15 02:59:42;;;;;;;2.05;1.85;;;;;;;;;;5094258;28;20035;-78
2021/06/15 03:02:08;;;;;;;2.92;1.80;;;;;;;;;;5094787;28;20028;-78
2021/06/15 03:04:34;;;;;;;3.90;2.00;;;;;;;;;;5096351;28;20020;-77
2021/06/15 03:07:00;;;;;;;3.13;2.20;;;;;;;;;;5096236;28;20024;-78
2021/06/15 03:09:26;;;;;;;2.40;1.85;;;;;;;;;;5075868;28;20060;-78
2021/06/15 03:11:55;;;;;;;1.95;1.60;;;;;;;;;;5076383;28;20374;-77
2021/06/15 03:14:22;;;;;;;2.45;1.75;;;;;;;;;;5075758;28;20039;-78
2021/06/15 03:16:50;;;;;;;2.75;2.53;;;;;;;;;;5067326;28;20115;-77
2021/06/15 03:19:27;;;;;;;2.33;1.83;;;;;;;;;;5076888;28;20020;-78
2021/06/15 03:22:03;;;;;;;2.63;1.75;;;;;;;;;;5077135;28;20373;-78
2021/06/15 03:24:31;;;;;;;4.97;2.22;;;;;;;;;;5094440;28;20477;-77
2021/06/15 03:27:02;;;;;;;2.45;2.13;;;;;;;;;;5084543;28;20797;-78
2021/06/15 03:29:30;;;;;;;4.10;2.22;;;;;;;;;;5076495;28;20027;-78
2021/06/15 03:31:59;;;;;;;4.20;1.75;;;;;;;;;;5078229;28;20026;-78
2021/06/15 03:34:27;;;;;;;1.80;1.70;;;;;;;;;;5059917;28;20041;-78
2021/06/15 03:36:54;;;;;;;2.53;1.65;;;;;;;;;;5083679;28;20024;-78
2021/06/15 03:39:21;;;;;;;2.30;1.67;;;;;;;;;;5097416;28;20119;-78
2021/06/15 03:41:47;;;;;;;3.45;1.85;;;;;;;;;;5096968;28;20028;-78
2021/06/15 03:44:14;;;;;;;2.17;1.70;;;;;;;;;;5057853;28;20046;-78
2021/06/15 03:46:41;;;;;;;2.83;1.70;;;;;;;;;;5079895;28;20157;-78
2021/06/15 03:49:09;;;;;;;1.73;1.63;;;;;;;;;;5098411;28;20412;-78
2021/06/15 03:51:36;;;;;;;2.92;1.70;;;;;;;;;;5099291;28;20039;-78
2021/06/15 03:54:06;;;;;;;2.83;1.98;;;;;;;;;;5098707;28;20111;-77
2021/06/15 03:56:38;;;;;;;3.83;1.73;;;;;;;;;;5099902;28;20020;-78
2021/06/15 03:59:08;;;;;;;3.17;1.70;;;;;;;;;;5089382;28;20115;-78
2021/06/15 04:01:35;;;;;;;2.45;1.58;;;;;;;;;;5085958;28;20071;-78
2021/06/15 04:04:05;;;;;;;2.92;1.83;;;;;;;;;;5082581;28;20465;-77
2021/06/15 04:06:34;;;;;;;3.30;1.80;;;;;;;;;;5072737;28;20475;-77
2021/06/15 04:09:04;;;;;;;3.60;1.73;;;;;;;;;;5100436;28;20337;-76
2021/06/15 04:11:31;;;;;;;2.95;2.13;;;;;;;;;;5098790;28;20084;-78
2021/06/15 04:13:57;;;;;;;2.33;1.88;;;;;;;;;;5084105;28;20492;-77
2021/06/15 04:16:27;;;;;;;5.72;1.90;;;;;;;;;;5080326;28;20035;-78
2021/06/15 04:18:55;;;;;;;2.30;1.67;;;;;;;;;;5066215;28;20024;-79
2021/06/15 04:21:21;;;;;;;2.65;1.95;;;;;;;;;;5084486;28;20020;-79
2021/06/15 04:23:56;;;;;;;3.08;1.65;;;;;;;;;;5065391;28;20044;-78
2021/06/15 04:26:23;;;;;;;3.20;2.03;;;;;;;;;;5081790;28;20034;-78
2021/06/15 04:28:49;;;;;;;2.65;1.75;;;;;;;;;;5080550;28;20029;-79
2021/06/15 04:31:15;;;;;;;3.53;1.70;;;;;;;;;;5080381;28;20029;-79
2021/06/15 04:33:44;;;;;;;3.78;1.80;;;;;;;;;;5080017;28;20030;-80
2021/06/15 04:36:12;;;;;;;1.73;1.60;;;;;;;;;;5052393;28;20025;-78
2021/06/15 04:38:41;;;;;;;2.97;1.52;;;;;;;;;;5074117;28;20037;-77
2021/06/15 04:41:17;;;;;;;1.83;1.73;;;;;;;;;;5072241;28;20082;-78
2021/06/15 04:43:58;;;;;;;2.00;1.50;;;;;;;;;;5072767;28;20032;-76
2021/06/15 04:46:26;;;;;;;3.15;1.98;;;;;;;;;;5071803;28;20029;-77
2021/06/15 04:48:58;;;;;;;2.20;2.00;;;;;;;;;;5072087;28;20097;-77
2021/06/15 04:51:24;;;;;;;1.55;1.40;;;;;;;;;;5071679;28;20389;-76
2021/06/15 04:53:58;;;;;;;3.03;1.70;;;;;;;;;;5072251;28;20052;-77
2021/06/15 04:56:24;;;;;;;2.30;1.67;;;;;;;;;;5072425;28;20027;-76
2021/06/15 04:58:53;;;;;;;1.83;1.60;;;;;;;;;;5054390;28;20036;-78
2021/06/15 05:01:19;;;;;;;2.00;1.80;;;;;;;;;;5072707;28;20032;-77
2021/06/15 05:03:45;;;;;;;3.35;2.08;;;;;;;;;;5074292;28;20047;-77
2021/06/15 05:06:13;;;;;;;1.95;1.70;;;;;;;;;;5075444;28;20021;-79
2021/06/15 05:08:52;;;;;;;2.00;1.48;;;;;;;;;;5059534;28;20025;-78
2021/06/15 05:11:18;;;;;;;1.52;1.35;;;;;;;;;;5052227;28;20056;-77
2021/06/15 05:13:44;;;;;;;1.63;1.30;;;;;;;;;;5046633;28;20028;-77
2021/06/15 05:16:12;;;;;;;4.97;1.50;;;;;;;;;;5077004;28;20024;-77
2021/06/15 05:18:38;;;;;;;3.28;1.60;;;;;;;;;;5092684;28;20024;-77
2021/06/15 05:21:08;;;;;;;1.40;1.30;;;;;;;;;;5093750;28;20077;-77
2021/06/15 05:23:37;;;;;;;3.25;2.13;;;;;;;;;;5096128;28;20024;-77
2021/06/15 05:26:03;;;;;;;2.40;1.60;;;;;;;;;;5095797;28;20423;-77
2021/06/15 05:28:29;;;;;;;2.42;1.63;;;;;;;;;;5095337;28;20028;-75
2021/06/15 05:30:55;;;;;;;1.88;1.60;;;;;;;;;;5095270;28;20032;-76
2021/06/15 05:33:22;;;;;;;1.50;1.40;;;;;;;;;;5094501;28;20031;-77
2021/06/15 05:35:48;;;;;;;4.43;2.25;;;;;;;;;;5094722;28;20031;-76
2021/06/15 05:38:15;;;;;;;2.10;1.75;;;;;;;;;;5083138;28;20024;-76
2021/06/15 05:40:45;;;;;;;2.80;1.67;;;;;;;;;;5081980;28;20038;-78
2021/06/15 05:43:11;;;;;;;1.73;1.63;;;;;;;;;;5097615;28;20020;-79
2021/06/15 05:45:37;;;;;;;2.55;1.63;;;;;;;;;;5059139;28;20035;-79
2021/06/15 05:48:03;;;;;;;2.05;1.70;;;;;;;;;;5058870;28;20036;-79
2021/06/15 05:50:29;;;;;;;1.60;1.50;;;;;;;;;;5077595;28;20044;-79
2021/06/15 05:52:55;;;;;;;3.05;1.77;;;;;;;;;;5059655;28;20032;-80
2021/06/15 05:55:21;;;;;;;2.47;1.90;;;;;;;;;;5058804;28;20100;-79
2021/06/15 05:57:48;;;;;;;2.30;2.08;;;;;;;;;;5087473;28;20032;-80
2021/06/15 06:00:14;;;;;;;1.77;1.67;;;;;;;;;;5068433;28;20050;-79
2021/06/15 06:02:40;;;;;;;1.58;1.40;;;;;;;;;;5080261;28;20028;-79
2021/06/15 06:10:23;;;;;;;3.13;1.95;;;;;;;;;;5076768;28;20043;-79
2021/06/15 06:12:49;;;;;;;2.15;1.80;;;;;;;;;;5077272;28;20028;-79
2021/06/15 06:15:16;;;;;;;1.52;1.42;;;;;;;;;;5076323;28;20366;-79
2021/06/15 06:17:43;;;;;;;1.88;1.42;;;;;;;;;;5058185;28;20386;-79
2021/06/15 06:20:11;;;;;;;2.38;1.70;;;;;;;;;;5077285;28;20101;-79
2021/06/15 06:22:37;;;;;;;3.42;2.17;;;;;;;;;;5079534;28;20092;-79
2021/06/15 06:25:08;;;;;;;1.50;1.40;;;;;;;;;;5060734;28;20047;-80
2021/06/15 06:27:35;;;;;;;2.47;1.92;;;;;;;;;;5092210;28;20024;-80
2021/06/15 06:30:01;;;;;;;2.08;1.83;;;;;;;;;;5099173;28;20538;-80
2021/06/15 06:32:27;;;;;;;2.30;1.85;;;;;;;;;;5098979;28;20088;-79
2021/06/15 06:34:53;;;;;;;4.40;2.08;;;;;;;;;;5096872;28;20070;-79
2021/06/15 06:37:19;;;;;;;3.72;2.35;;;;;;;;;;5101481;28;20039;-80
2021/06/15 06:39:45;;;;;;;2.50;2.05;;;;;;;;;;5082198;28;20032;-80
2021/06/15 06:42:11;;;;;;;3.28;2.70;;;;;;;;;;5101593;28;20051;-80
2021/06/15 06:44:37;;;;;;;5.10;2.30;;;;;;;;;;5080557;28;20035;-80
2021/06/15 06:47:03;;;;;;;2.30;2.10;;;;;;;;;;5079321;28;20013;-81
2021/06/15 06:49:29;;;;;;;2.35;1.80;;;;;;;;;;5077488;28;20028;-80
2021/06/15 06:51:55;;;;;;;2.00;1.80;;;;;;;;;;5077468;28;20028;-80
2021/06/15 06:54:21;;;;;;;2.15;1.90;;;;;;;;;;5062545;28;20017;-81
2021/06/15 06:56:47;;;;;;;2.15;1.73;;;;;;;;;;5085108;28;20026;-81
2021/06/15 06:59:13;;;;;;;1.83;1.73;;;;;;;;;;5108966;28;20062;-80
2021/06/15 07:01:39;;;;;;;1.80;1.70;;;;;;;;;;5101694;28;20031;-80
2021/06/15 07:04:05;;;;;;;1.48;1.38;;;;;;;;;;5102515;28;20020;-80
2021/06/15 07:06:32;;;;;;;4.32;2.20;;;;;;;;;;5064534;28;20099;-80
2021/06/15 07:08:58;;;;;;;1.90;1.80;;;;;;;;;;5080754;28;20083;-79
2021/06/15 07:11:24;;;;;;;3.67;2.20;;;;;;;;;;5078127;28;20024;-79
2021/06/15 07:13:50;;;;;;;4.22;2.00;;;;;;;;;;5078388;28;20044;-79
2021/06/15 07:16:16;;;;;;;3.83;2.47;;;;;;;;;;5076961;28;20039;-80
2021/06/15 07:18:42;;;;;;;2.85;2.22;;;;;;;;;;5081286;28;20029;-79
2021/06/15 07:21:09;;;;;;;4.05;2.60;;;;;;;;;;5082407;28;20055;-81
2021/06/15 07:23:35;;;;;;;2.70;2.33;;;;;;;;;;5058381;28;20134;-79
2021/06/15 07:26:01;;;;;;;5.00;2.45;;;;;;;;;;5081007;28;20043;-79
2021/06/15 07:28:27;;;;;;;5.10;2.58;;;;;;;;;;5079092;28;20111;-79
2021/06/15 07:30:53;;;;;;;7.20;3.13;;;;;;;;;;5077680;28;20028;-80
2021/06/15 07:33:19;;;;;;;5.50;2.38;;;;;;;;;;5078819;28;20055;-80
2021/06/15 07:35:46;;;;;;;3.83;2.55;;;;;;;;;;5078963;28;20028;-80
2021/06/15 07:38:12;;;;;;;7.60;3.17;;;;;;;;;;5077935;28;20028;-80
2021/06/15 07:40:38;;;;;;;8.68;2.95;;;;;;;;;;5059997;28;20038;-80
2021/06/15 07:43:04;;;;;;;4.30;2.50;;;;;;;;;;5078540;28;20025;-81
2021/06/15 07:45:30;;;;;;;3.90;2.40;;;;;;;;;;5071145;28;20031;-81
2021/06/15 07:47:57;;;;;;;4.50;2.45;;;;;;;;;;5079445;28;20039;-82
2021/06/15 07:50:24;;;;;;;5.18;2.30;;;;;;;;;;5078322;28;20096;-81
2021/06/15 07:52:50;;;;;;;3.90;2.35;;;;;;;;;;5063611;28;20032;-81
2021/06/15 07:55:17;;;;;;;5.18;2.17;;;;;;;;;;5089266;28;20028;-80
2021/06/15 07:57:43;;;;;;;7.30;3.13;;;;;;;;;;5068398;28;20393;-81
2021/06/15 08:00:10;;;;;;;6.20;2.28;;;;;;;;;;5086891;28;20036;-81
2021/06/15 08:02:36;;;;;;;6.88;2.90;;;;;;;;;;5090946;28;20030;-81
2021/06/15 08:05:03;;;;;;;2.88;2.30;;;;;;;;;;5090491;28;20044;-81
2021/06/15 08:07:30;;;;;;;4.75;2.05;;;;;;;;;;5085634;28;20025;-80
2021/06/15 08:09:56;;;;;;;3.05;2.20;;;;;;;;;;5065630;28;20032;-81
2021/06/15 08:12:22;;;;;;;4.75;2.17;;;;;;;;;;5085291;28;20113;-81
2021/06/15 08:14:48;;;;;;;2.85;1.98;;;;;;;;;;5072055;28;20050;-81
2021/06/15 08:17:14;;;;;;;3.85;1.88;;;;;;;;;;5091092;28;20032;-81
2021/06/15 08:19:41;;;;;;;2.88;2.15;;;;;;;;;;5092087;28;20028;-81
2021/06/15 08:22:07;;;;;;;2.95;1.55;;;;;;;;;;5092719;28;20036;-80
2021/06/15 08:24:33;;;;;;;4.65;2.10;;;;;;;;;;5090290;28;20039;-80
2021/06/15 08:26:59;;;;;;;2.20;1.65;;;;;;;;;;5111650;28;20024;-80
2021/06/15 08:29:26;;;;;;;3.70;1.58;;;;;;;;;;5101678;28;20046;-81
2021/06/15 08:31:52;;;;;;;9.40;1.83;;;;;;;;;;5085444;28;20036;-80
2021/06/15 08:34:18;;;;;;;2.05;1.50;;;;;;;;;;5085049;28;20029;-81
2021/06/15 08:36:44;;;;;;;6.57;1.85;;;;;;;;;;5080546;28;20482;-79
2021/06/15 08:39:11;;;;;;;3.42;1.90;;;;;;;;;;5077774;28;20330;-81
2021/06/15 08:41:37;;;;;;;5.05;2.17;;;;;;;;;;5077685;28;20032;-79
2021/06/15 08:44:06;;;;;;;4.00;2.08;;;;;;;;;;5077863;28;20084;-79
2021/06/15 08:46:33;;;;;;;3.90;1.75;;;;;;;;;;5077124;28;20020;-80
2021/06/15 08:49:00;;;;;;;2.47;1.75;;;;;;;;;;5081044;28;20043;-79
2021/06/15 08:51:26;;;;;;;4.65;1.73;;;;;;;;;;5064937;28;20025;-79
2021/06/15 08:53:53;;;;;;;4.07;2.13;;;;;;;;;;5078613;28;20032;-80
2021/06/15 08:56:28;;;;;;;1.95;1.63;;;;;;;;;;5060037;28;20395;-80
2021/06/15 08:59:13;;;;;;;3.85;2.33;;;;;;;;;;5081061;28;20037;-79
2021/06/15 09:01:39;;;;;;;8.35;3.08;;;;;;;;;;5083895;28;20039;-79
2021/06/15 09:04:05;;;;;;;3.63;2.00;;;;;;;;;;5089312;28;20074;-80
2021/06/15 09:06:31;;;;;;;4.13;1.65;;;;;;;;;;5090309;28;20016;-81
2021/06/15 09:09:01;;;;;;;6.60;1.98;;;;;;;;;;5108612;28;20024;-81
2021/06/15 09:11:28;;;;;;;4.88;1.77;;;;;;;;;;5109681;28;20038;-81
2021/06/15 09:13:55;;;;;;;5.55;1.88;;;;;;;;;;5105266;28;20024;-80
2021/06/15 09:16:28;;;;;;;4.43;1.92;;;;;;;;;;5091407;28;20028;-81
2021/06/15 09:18:59;;;;;;;6.60;2.75;;;;;;;;;;5065096;28;20115;-81
2021/06/15 09:21:31;;;;;;;3.75;2.25;;;;;;;;;;5080621;28;20763;-81
2021/06/15 09:24:04;;;;;;;5.95;2.33;;;;;;;;;;5085154;28;20088;-80
2021/06/15 09:26:51;;;;;;;4.05;1.80;;;;;;;;;;5085945;28;20056;-79
2021/06/15 09:29:17;;;;;;;2.78;1.55;;;;;;;;;;5064840;28;20033;-78
2021/06/15 09:31:53;;;;;;;7.22;1.98;;;;;;;;;;5082586;28;20032;-79
2021/06/15 09:34:20;;;;;;;4.03;2.20;;;;;;;;;;5063214;28;20020;-79
2021/06/15 09:36:46;;;;;;;2.33;1.75;;;;;;;;;;5063420;28;20028;-79
2021/06/15 09:39:12;;;;;;;2.80;1.60;;;;;;;;;;5098565;28;20024;-79
2021/06/15 09:41:39;;;;;;;6.28;2.03;;;;;;;;;;5093784;28;20051;-79
2021/06/15 09:44:14;;;;;;;5.18;2.80;;;;;;;;;;5085637;28;20021;-78
2021/06/15 09:46:47;;;;;;;3.80;1.92;;;;;;;;;;5060782;28;20024;-79
2021/06/15 09:49:13;;;;;;;3.17;1.65;;;;;;;;;;5079794;28;20029;-78
2021/06/15 09:51:40;;;;;;;3.67;1.90;;;;;;;;;;5079344;28;20032;-78
2021/06/15 09:54:06;;;;;;;3.30;1.75;;;;;;;;;;5083043;28;20031;-78
2021/06/15 09:56:32;;;;;;;3.58;2.33;;;;;;;;;;5079176;28;20024;-79
2021/06/15 09:58:59;;;;;;;6.35;2.00;;;;;;;;;;5080147;28;20028;-78
2021/06/15 10:01:29;;;;;;;5.90;2.00;;;;;;;;;;5082425;28;20469;-78
2021/06/15 10:04:07;;;;;;;2.65;2.00;;;;;;;;;;5084943;28;20069;-79
2021/06/15 10:06:37;;;;;;;4.10;2.13;;;;;;;;;;5090802;28;20106;-80
2021/06/15 10:09:04;;;;;;;4.43;2.20;;;;;;;;;;5090030;28;20040;-79
2021/06/15 10:11:31;;;;;;;2.63;1.58;;;;;;;;;;5105379;28;20032;-79
2021/06/15 10:13:58;;;;;;;2.83;2.28;;;;;;;;;;5085707;28;20020;-80
2021/06/15 10:16:24;;;;;;;5.70;1.52;;;;;;;;;;5103191;28;20047;-80
2021/06/15 10:18:50;;;;;;;2.30;1.70;;;;;;;;;;5086709;28;20043;-81
2021/06/15 10:21:17;;;;;;;2.25;1.75;;;;;;;;;;5072617;28;20114;-79
2021/06/15 10:23:50;;;;;;;4.82;2.85;;;;;;;;;;5083408;28;20028;-79
2021/06/15 10:26:17;;;;;;;1.85;1.75;;;;;;;;;;5061596;28;20094;-82
2021/06/15 10:28:43;;;;;;;4.47;2.55;;;;;;;;;;5067365;28;20036;-80
2021/06/15 10:31:10;;;;;;;3.53;1.90;;;;;;;;;;5072126;28;20036;-80
2021/06/15 10:33:46;;;;;;;3.83;2.22;;;;;;;;;;5086320;28;20035;-79
2021/06/15 10:36:13;;;;;;;5.07;1.98;;;;;;;;;;5086178;28;20037;-81
2021/06/15 10:38:48;;;;;;;3.28;1.92;;;;;;;;;;5082021;28;20024;-81
2021/06/15 10:41:26;;;;;;;4.38;2.20;;;;;;;;;;5101645;28;20028;-80
2021/06/15 10:44:01;;;;;;;3.72;2.22;;;;;;;;;;5109981;28;20024;-80
2021/06/15 10:46:35;;;;;;;4.03;2.10;;;;;;;;;;5109241;28;20028;-80
2021/06/15 10:49:03;;;;;;;3.97;1.90;;;;;;;;;;5091755;28;20039;-81
2021/06/15 10:51:29;;;;;;;3.83;2.00;;;;;;;;;;5094281;28;20024;-81
2021/06/15 10:54:02;;;;;;;1.70;1.40;;;;;;;;;;5075804;28;20031;-80
2021/06/15 10:56:31;;;;;;;1.98;1.77;;;;;;;;;;5089334;28;20028;-80
2021/06/15 10:59:01;;;;;;;3.75;1.77;;;;;;;;;;5108677;28;20055;-79
2021/06/15 11:01:28;;;;;;;2.20;2.00;;;;;;;;;;5094711;28;20023;-80
2021/06/15 11:04:04;;;;;;;4.18;2.08;;;;;;;;;;5096706;28;20048;-79
2021/06/15 11:06:32;;;;;;;2.05;1.63;;;;;;;;;;5095427;28;20037;-80
2021/06/15 11:09:04;;;;;;;1.58;1.40;;;;;;;;;;5095563;28;20024;-78
2021/06/15 11:11:35;;;;;;;3.03;1.80;;;;;;;;;;5099238;28;20020;-79
2021/06/15 11:14:12;;;;;;;3.38;2.08;;;;;;;;;;5105982;28;20103;-81
2021/06/15 11:16:45;;;;;;;2.38;1.80;;;;;;;;;;5090322;28;20020;-81
2021/06/15 11:19:11;;;;;;;2.75;1.92;;;;;;;;;;5069334;28;20052;-79
2021/06/15 11:22:00;;;;;;;5.50;1.85;;;;;;;;;;5092239;28;20422;-80
2021/06/15 11:24:39;;;;;;;2.72;1.67;;;;;;;;;;5065295;28;20061;-82
2021/06/15 11:27:07;;;;;;;3.70;1.60;;;;;;;;;;5081364;28;20020;-81
2021/06/15 11:29:39;;;;;;;3.35;1.67;;;;;;;;;;5081262;28;20024;-81
2021/06/15 11:32:23;;;;;;;3.20;1.90;;;;;;;;;;5082922;28;20032;-81
2021/06/15 11:34:56;;;;;;;4.15;2.03;;;;;;;;;;5081151;28;20052;-81
2021/06/15 11:37:28;;;;;;;3.20;1.90;;;;;;;;;;5091248;28;20029;-80
2021/06/15 11:39:55;;;;;;;1.85;1.75;;;;;;;;;;5077959;28;20070;-80
2021/06/15 11:42:21;;;;;;;4.47;1.63;;;;;;;;;;5078573;28;20032;-81
2021/06/15 11:45:06;;;;;;;3.20;1.90;;;;;;;;;;5098127;28;20032;-79
2021/06/15 11:47:32;;;;;;;2.28;1.58;;;;;;;;;;5084522;28;20024;-81
2021/06/15 11:50:07;;;;;;;2.17;1.75;;;;;;;;;;5094143;28;20020;-81
2021/06/15 11:52:33;;;;;;;1.67;1.58;;;;;;;;;;5068890;28;20032;-82
2021/06/15 11:55:00;;;;;;;1.48;1.38;;;;;;;;;;5091340;28;20070;-81
2021/06/15 11:57:26;;;;;;;1.85;1.23;;;;;;;;;;5086400;28;20020;-81
2021/06/15 11:59:52;;;;;;;1.55;1.08;;;;;;;;;;5064674;28;20025;-81
2021/06/15 12:02:19;;;;;;;1.20;1.10;;;;;;;;;;5087029;28;20185;-81
2021/06/15 12:05:09;;;;;;;2.10;1.10;;;;;;;;;;5065712;28;20028;-81
2021/06/15 12:07:35;;;;;;;1.77;1.33;;;;;;;;;;5074267;28;20453;-81
2021/06/15 12:10:04;;;;;;;2.08;1.30;;;;;;;;;;5103881;28;20095;-81
2021/06/15 12:12:31;;;;;;;2.35;1.20;;;;;;;;;;5092132;28;20481;-81
2021/06/15 12:14:57;;;;;;;1.98;1.20;;;;;;;;;;5079193;28;20047;-81
2021/06/15 12:17:23;;;;;;;1.90;1.08;;;;;;;;;;5087431;28;20338;-80
2021/06/15 12:19:49;;;;;;;1.98;1.52;;;;;;;;;;5080679;28;20024;-81
2021/06/15 12:22:15;;;;;;;2.80;1.30;;;;;;;;;;5088673;28;20041;-81
2021/06/15 12:24:45;;;;;;;2.65;1.45;;;;;;;;;;5099387;28;20035;-82
2021/06/15 12:27:23;;;;;;;2.10;1.08;;;;;;;;;;5089990;28;20024;-81
2021/06/15 12:29:49;;;;;;;1.15;1.05;;;;;;;;;;5078377;28;20021;-82
2021/06/15 12:32:15;;;;;;;3.88;1.50;;;;;;;;;;5060617;28;20021;-82
2021/06/15 12:34:41;;;;;;;2.10;1.20;;;;;;;;;;5065143;28;20031;-82
2021/06/15 12:37:07;;;;;;;1.17;1.10;;;;;;;;;;5082541;28;20547;-82
2021/06/15 12:39:34;;;;;;;1.60;1.50;;;;;;;;;;5084156;28;20033;-82
2021/06/15 12:42:00;;;;;;;2.42;1.50;;;;;;;;;;5084462;28;20036;-82
2021/06/15 12:44:26;;;;;;;2.33;1.30;;;;;;;;;;5066145;28;20074;-81
2021/06/15 12:47:01;;;;;;;1.85;1.30;;;;;;;;;;5067360;28;20012;-82
2021/06/15 12:49:30;;;;;;;1.73;1.10;;;;;;;;;;5101947;28;20028;-81
2021/06/15 12:51:58;;;;;;;1.45;1.35;;;;;;;;;;5080126;28;20029;-81
2021/06/15 12:54:31;;;;;;;1.50;1.00;;;;;;;;;;5061881;28;20023;-81
2021/06/15 12:56:59;;;;;;;1.33;1.23;;;;;;;;;;5069460;28;20028;-81
2021/06/15 12:59:25;;;;;;;3.28;1.52;;;;;;;;;;5082213;28;20024;-82
2021/06/15 13:01:53;;;;;;;1.40;1.30;;;;;;;;;;5065787;28;20095;-81
2021/06/15 13:04:22;;;;;;;2.90;1.40;;;;;;;;;;5082896;28;20369;-80
2021/06/15 13:06:50;;;;;;;2.83;1.73;;;;;;;;;;5085176;28;20473;-80
2021/06/15 13:09:27;;;;;;;1.95;1.63;;;;;;;;;;5086562;28;20060;-80
2021/06/15 13:12:07;;;;;;;1.90;1.52;;;;;;;;;;5056069;28;20039;-79
2021/06/15 13:14:35;;;;;;;1.92;1.73;;;;;;;;;;5076213;28;20097;-80
2021/06/15 13:17:10;;;;;;;4.90;1.80;;;;;;;;;;5081026;28;20036;-80
2021/06/15 13:19:37;;;;;;;2.45;1.42;;;;;;;;;;5081350;28;20146;-80
2021/06/15 13:22:04;;;;;;;1.60;1.50;;;;;;;;;;5060483;28;20040;-80
2021/06/15 13:24:31;;;;;;;2.22;1.92;;;;;;;;;;5063373;28;20033;-80
2021/06/15 13:27:16;;;;;;;2.85;1.52;;;;;;;;;;5082373;28;20048;-81
2021/06/15 13:29:46;;;;;;;2.83;2.10;;;;;;;;;;5067214;28;20084;-81
2021/06/15 13:32:19;;;;;;;3.33;2.03;;;;;;;;;;5086180;28;20084;-81
2021/06/15 13:35:04;;;;;;;2.10;1.70;;;;;;;;;;5100423;28;20468;-81
2021/06/15 13:37:34;;;;;;;2.58;1.63;;;;;;;;;;5083470;28;20024;-81
2021/06/15 13:40:01;;;;;;;1.70;1.45;;;;;;;;;;5083537;28;20111;-81
2021/06/15 13:42:30;;;;;;;2.50;1.55;;;;;;;;;;5101916;28;20032;-81
2021/06/15 13:45:05;;;;;;;5.22;2.22;;;;;;;;;;5090576;28;20119;-81
2021/06/15 13:47:31;;;;;;;2.65;1.77;;;;;;;;;;5089283;28;20020;-81
2021/06/15 13:49:57;;;;;;;3.35;2.00;;;;;;;;;;5085924;28;20046;-81
2021/06/15 13:52:23;;;;;;;1.80;1.50;;;;;;;;;;5089801;28;20430;-81
2021/06/15 13:54:49;;;;;;;1.85;1.60;;;;;;;;;;5086296;28;20016;-81
2021/06/15 13:57:16;;;;;;;4.80;1.60;;;;;;;;;;5084665;28;20436;-81
2021/06/15 13:59:42;;;;;;;4.90;1.50;;;;;;;;;;5082127;28;20084;-82
2021/06/15 14:02:08;;;;;;;2.03;1.70;;;;;;;;;;5093791;28;20024;-82
2021/06/15 14:04:34;;;;;;;3.03;1.80;;;;;;;;;;5072915;28;20028;-82
2021/06/15 14:07:00;;;;;;;3.00;1.50;;;;;;;;;;5093703;28;20025;-81
2021/06/15 14:09:27;;;;;;;3.33;1.70;;;;;;;;;;5091495;28;20076;-82
2021/06/15 14:11:53;;;;;;;4.10;1.98;;;;;;;;;;5091474;28;20024;-82
2021/06/15 14:14:19;;;;;;;1.65;1.55;;;;;;;;;;5073899;28;20029;-81
2021/06/15 14:16:45;;;;;;;1.88;1.67;;;;;;;;;;5109256;28;20028;-79
2021/06/15 14:19:11;;;;;;;4.03;2.75;;;;;;;;;;5098842;28;20008;-81
2021/06/15 14:21:37;;;;;;;2.15;1.65;;;;;;;;;;5110876;28;20115;-81
2021/06/15 14:24:08;;;;;;;1.95;1.80;;;;;;;;;;5086728;28;20069;-80
2021/06/15 14:26:34;;;;;;;4.18;1.90;;;;;;;;;;5072563;28;20035;-80
2021/06/15 14:29:00;;;;;;;2.38;1.90;;;;;;;;;;5073592;28;20012;-80
2021/06/15 14:31:32;;;;;;;3.10;2.00;;;;;;;;;;5076269;28;20058;-81
2021/06/15 14:34:00;;;;;;;1.40;1.30;;;;;;;;;;5076077;28;20033;-81
2021/06/15 14:36:27;;;;;;;1.48;1.38;;;;;;;;;;5091956;28;20056;-81
2021/06/15 14:38:53;;;;;;;2.22;1.67;;;;;;;;;;5090172;28;20039;-82
2021/06/15 14:41:22;;;;;;;2.30;1.42;;;;;;;;;;5070522;28;20068;-83
2021/06/15 14:43:49;;;;;;;5.20;1.83;;;;;;;;;;5069543;28;20013;-81
2021/06/15 14:46:15;;;;;;;5.45;2.05;;;;;;;;;;5095143;28;20024;-83
2021/06/15 14:48:41;;;;;;;3.50;1.80;;;;;;;;;;5085261;28;20032;-83
2021/06/15 14:51:07;;;;;;;3.40;2.10;;;;;;;;;;5066254;28;20085;-83
2021/06/15 14:53:33;;;;;;;9.75;2.72;;;;;;;;;;5087233;28;20154;-83
2021/06/15 14:56:08;;;;;;;3.40;1.88;;;;;;;;;;5084479;28;20063;-83